Brownsville, OR (97327)

3:06 PM PST on December 02, 2016 (GMT -0800)
Powell Hills | | Change Station

Elev 436 ft 44.41 °N, 123.03 °W | Updated 8 seconds ago

Overcast
Overcast
44.9 °F
Feels Like 42 °F
N
4.7
Wind Variable Wind from South
Gusts 10.0 mph

Today
High -- | Low -- °F
--% Chance of Precip.
Yesterday
High -- | Low -- °F
Precip. -- in
Pressure 30.35 in
Visibility 10.0 miles
Clouds Overcast 4800 ft
Windchill 42 °F
Dew Point 43 °F
Humidity 92%
Rainfall 0.00 in
Snow Depth Not available.
7:29 AM 4:33 PM
Waxing Crescent, 11% visible
METAR KEUG 022254Z 17010KT 10SM OVC048 07/04 A3033 RMK AO2 RAB07E28 SLP275 P0002 T00720039
Pressure 30.35 in
Visibility 10.0 miles
Clouds Overcast 4800 ft
Windchill 42 °F
Dew Point 43 °F
Humidity 92%
Rainfall 0.00 in
Snow Depth Not available.
7:29 AM 4:33 PM
Waxing Crescent, 11% visible
METAR KEUG 022254Z 17010KT 10SM OVC048 07/04 A3033 RMK AO2 RAB07E28 SLP275 P0002 T00720039

10-Day Weather Forecast

Almanac

Astronomy

Dec. 02, 2016 Rise Set
Actual Time
Civil Twilight
Nautical Twilight
Astronomical Twilight
Moon
Length of Visible Light
Length of Day
Tomorrow will be .
, % of the Moon is Illuminated

Today's Extremes

State Highs State Lows

Community

WunderPhotos

Upload Photos

1,955,369 photos uploaded!

WunderBlog® & News

Nearby

Air Quality

  Air Quality AQ Index Pollutant
Not available.

Snow Depth

Station Depth Elevation

Earthquake Activity

City Distance Mag. Time & Date
Minimum magnitude displayed is 2.5.

Coastal Water Temperatures

Place Temperature

Stations

Nearby Weather Stations

Station Location Temp. Windchill Dew Point Humidity Wind Precip. Elev Updated Type
                   

Watches & Warnings

There are currently no watches in effect.